Valdosta, GA

6:54 AM EDT on March 27, 2015 (GMT -0400)
Valdosta Regional | | Change Station
CLOSE
Current Station
Airport
Location: Valdosta Regional,
Elevation: 203 ft
Nearby Weather Stations

Elev 203 ft 30.78 °N, 83.27 °W | Updated 1 hour ago

Overcast
Overcast
64 °F
Feels Like 64 °F
N
4
Wind Variable Wind from Variable

Today
High -- | Low -- °F
--% Chance of Precip.
Yesterday
High -- | Low -- °F
Precip. -- in
7:28 AM 7:48 PM
First Quarter, 51% visible
Pressure 29.81 in
Visibility 6.0 miles
Clouds Overcast 300 ft
Dew Point 64 °F
Humidity 100%
Rainfall 0.01 in
Snow Depth Not available.
UV 0 out of 12
Pollen 10.30 out of 12
Air Quality Not available.
Flu Activity Not available.
METAR KVLD 270953Z AUTO VRB03KT 6SM BR OVC003 18/18 A2978 RMK AO2 SLP092 T01780178 TSNO

More Conditions Fewer Conditions

Pressure 29.81 in
Visibility 6.0 miles
Clouds Overcast 300 ft
Dew Point 64 °F
Humidity 100%
Rainfall 0.01 in
Snow Depth Not available.
UV 0 out of 12
Pollen 10.30 out of 12
Air Quality Not available.
Flu Activity Not available.
METAR KVLD 270953Z AUTO VRB03KT 6SM BR OVC003 18/18 A2978 RMK AO2 SLP092 T01780178 TSNO

More Conditions Fewer Conditions

10-Day Weather Forecast

Almanac

Astronomy

Mar. 27, 2015 Rise Set
Actual Time
Civil Twilight
Nautical Twilight
Astronomical Twilight
Moon
Length of Visible Light
Length of Day
Tomorrow will be .
, % of the Moon is Illuminated

Today's Extremes

State Highs State Lows

Community

WunderPhotos

Upload Photos

1,808,706 photos uploaded!

WunderBlogs® & News

Nearby

Air Quality

  Air Quality AQ Index Pollutant
Not available.

Snow Depth

Station Depth Elevation

Earthquake Activity

City Distance Mag. Time & Date
Minimum magnitude displayed is 2.5.

Coastal Water Temperatures

Place Temperature

Stations

Nearby Weather Stations

Station Location Temp. Windchill Dew Point Humidity Wind Precip. Elev Updated Type